createdAt,value
2018-12-21T00:01:44.865Z,91.70
2018-12-21T00:04:48.871Z,91.60
2018-12-21T00:07:52.882Z,91.50
2018-12-21T00:10:56.885Z,91.50
2018-12-21T00:14:00.894Z,91.40
2018-12-21T00:17:04.910Z,91.30
2018-12-21T00:20:10.031Z,91.30
2018-12-21T00:23:14.039Z,91.20
2018-12-21T00:26:18.164Z,91.10
2018-12-21T00:29:22.170Z,91.10
2018-12-21T00:32:31.717Z,91.00
2018-12-21T00:35:41.269Z,90.90
2018-12-21T00:38:50.690Z,90.90
2018-12-21T00:41:54.009Z,90.90
2018-12-21T00:45:03.548Z,90.90
2018-12-21T00:48:07.738Z,90.90
2018-12-21T00:51:11.755Z,91.10
2018-12-21T00:54:15.827Z,91.20
2018-12-21T00:57:19.818Z,91.20
2018-12-21T01:00:25.894Z,91.20
2018-12-21T01:03:29.914Z,91.20
2018-12-21T01:06:33.994Z,91.10
2018-12-21T01:09:38.078Z,91.00
2018-12-21T01:12:42.192Z,91.00
2018-12-21T01:15:46.360Z,90.90
2018-12-21T01:18:50.429Z,90.80
2018-12-21T01:21:54.530Z,90.70
2018-12-21T01:24:58.529Z,90.70
2018-12-21T01:28:02.534Z,90.60
2018-12-21T01:31:06.546Z,90.60
2018-12-21T01:34:10.622Z,90.70
2018-12-21T01:37:14.644Z,90.70
2018-12-21T01:40:18.657Z,90.60
2018-12-21T01:43:22.670Z,90.60
2018-12-21T01:46:26.675Z,90.50
2018-12-21T01:49:30.762Z,90.50
2018-12-21T01:52:34.774Z,90.50
2018-12-21T01:55:38.767Z,90.40
2018-12-21T01:58:42.794Z,90.40
2018-12-21T02:01:46.797Z,90.40
2018-12-21T02:04:50.787Z,90.40
2018-12-21T02:07:54.796Z,90.30
2018-12-21T02:10:58.917Z,90.30
2018-12-21T02:14:02.899Z,90.20
2018-12-21T02:17:06.908Z,90.10
2018-12-21T02:20:10.913Z,90.20
2018-12-21T02:23:14.921Z,90.10
2018-12-21T02:26:18.948Z,90.20
2018-12-21T02:29:22.953Z,90.20
2018-12-21T02:32:26.976Z,90.20
2018-12-21T02:35:30.966Z,90.20
2018-12-21T02:38:34.963Z,90.30
2018-12-21T02:41:38.971Z,90.40
2018-12-21T02:44:42.977Z,90.40
2018-12-21T02:47:47.180Z,90.40
2018-12-21T02:50:51.175Z,90.40
2018-12-21T02:53:55.181Z,90.50
2018-12-21T02:56:59.195Z,90.40
2018-12-21T03:00:04.282Z,90.40
2018-12-21T03:03:08.285Z,90.40
2018-12-21T03:06:12.279Z,90.40
2018-12-21T03:09:16.278Z,90.40
2018-12-21T03:12:20.294Z,90.50
2018-12-21T03:15:24.351Z,90.50
2018-12-21T03:18:28.347Z,90.50
2018-12-21T03:21:32.451Z,90.50
2018-12-21T03:24:36.463Z,90.60
2018-12-21T03:27:40.472Z,90.60
2018-12-21T03:30:44.472Z,90.70
2018-12-21T03:33:48.481Z,90.70
2018-12-21T03:36:52.467Z,90.80
2018-12-21T03:39:56.491Z,90.80
2018-12-21T03:43:01.962Z,90.80
2018-12-21T03:46:06.143Z,90.90
2018-12-21T03:49:10.154Z,90.90
2018-12-21T03:52:14.207Z,90.90
2018-12-21T03:55:18.230Z,90.80
2018-12-21T03:58:22.253Z,90.80
2018-12-21T04:01:26.254Z,90.80
2018-12-21T04:04:30.263Z,90.80
2018-12-21T04:07:34.349Z,90.70
2018-12-21T04:10:38.353Z,90.60
2018-12-21T04:13:42.363Z,90.60
2018-12-21T04:16:46.368Z,90.60
2018-12-21T04:19:50.780Z,90.50
2018-12-21T04:22:57.026Z,90.80
2018-12-21T04:26:01.027Z,90.50
2018-12-21T04:29:05.124Z,90.50
2018-12-21T04:32:09.127Z,90.50
2018-12-21T04:35:13.184Z,90.50
2018-12-21T04:38:17.184Z,90.50
2018-12-21T04:41:21.191Z,90.40
2018-12-21T04:44:25.194Z,90.40
2018-12-21T04:47:29.279Z,90.30
2018-12-21T04:50:33.342Z,90.30
2018-12-21T04:53:37.448Z,90.20
2018-12-21T04:56:41.459Z,90.20
2018-12-21T04:59:45.461Z,90.20
2018-12-21T05:02:49.466Z,90.20
2018-12-21T05:05:53.490Z,90.10
2018-12-21T05:08:57.507Z,90.10
2018-12-21T05:12:01.512Z,90.20
2018-12-21T05:15:05.915Z,90.10
2018-12-21T05:18:09.957Z,90.10
2018-12-21T05:21:14.047Z,90.10
2018-12-21T05:24:18.195Z,90.10
2018-12-21T05:27:22.205Z,90.10
2018-12-21T05:30:26.203Z,90.10
2018-12-21T05:33:30.223Z,90.20
2018-12-21T05:36:34.834Z,90.20
2018-12-21T05:39:39.122Z,90.20
2018-12-21T05:42:43.458Z,90.20
2018-12-21T05:45:47.592Z,90.20
2018-12-21T05:48:52.284Z,90.20
2018-12-21T05:51:56.637Z,90.20
2018-12-21T05:55:00.728Z,90.30
2018-12-21T05:58:05.510Z,90.30
2018-12-21T06:01:09.703Z,90.30
2018-12-21T06:04:13.779Z,90.30
2018-12-21T06:07:17.810Z,90.20
2018-12-21T06:10:21.811Z,90.30
2018-12-21T06:13:25.851Z,90.20
2018-12-21T06:16:29.850Z,90.20
2018-12-21T06:19:33.870Z,90.20
2018-12-21T06:22:37.950Z,90.20
2018-12-21T06:25:41.927Z,90.10
2018-12-21T06:28:45.940Z,90.00
2018-12-21T06:31:49.950Z,90.00
2018-12-21T06:34:53.959Z,90.00
2018-12-21T06:37:57.977Z,89.90
2018-12-21T06:41:01.966Z,89.70
2018-12-21T06:44:05.986Z,89.70
2018-12-21T06:47:10.021Z,89.40
2018-12-21T06:50:14.217Z,89.30
2018-12-21T06:53:18.397Z,89.20
2018-12-21T06:56:22.517Z,88.90
2018-12-21T06:59:26.519Z,88.70
2018-12-21T07:02:30.882Z,88.40
2018-12-21T07:05:34.899Z,88.50
2018-12-21T07:08:38.914Z,88.50
2018-12-21T07:11:42.983Z,88.40
2018-12-21T07:14:47.003Z,88.10
2018-12-21T07:17:51.118Z,88.00
2018-12-21T07:20:55.142Z,88.10
2018-12-21T07:23:59.154Z,88.20
2018-12-21T07:27:03.247Z,88.40
2018-12-21T07:30:09.993Z,88.40
2018-12-21T07:33:13.997Z,88.70
2018-12-21T07:36:18.116Z,88.50
2018-12-21T07:39:22.110Z,88.50
2018-12-21T07:42:26.118Z,88.60
2018-12-21T07:45:30.142Z,88.40
2018-12-21T07:48:34.159Z,88.20
2018-12-21T07:51:38.169Z,87.90
2018-12-21T07:54:42.174Z,87.80
2018-12-21T07:57:46.175Z,87.70
2018-12-21T08:00:50.218Z,87.70
2018-12-21T08:03:54.230Z,87.50
2018-12-21T08:06:58.225Z,87.40
2018-12-21T08:10:02.315Z,88.00
2018-12-21T08:13:06.414Z,86.90
2018-12-21T08:16:10.410Z,86.90
2018-12-21T08:19:14.398Z,87.00
2018-12-21T08:22:18.406Z,87.00
2018-12-21T08:25:22.406Z,87.00
2018-12-21T08:28:26.411Z,87.10
2018-12-21T08:31:30.414Z,87.20
2018-12-21T08:34:34.423Z,87.20
2018-12-21T08:37:38.435Z,87.50
2018-12-21T08:40:42.446Z,87.80
2018-12-21T08:43:46.435Z,88.40
2018-12-21T08:46:50.457Z,88.70
2018-12-21T08:49:54.455Z,89.20
2018-12-21T08:52:58.541Z,89.80
2018-12-21T08:56:02.621Z,90.00
2018-12-21T08:59:06.663Z,90.10
2018-12-21T09:02:10.676Z,90.40
2018-12-21T09:05:14.786Z,90.50
2018-12-21T09:08:18.866Z,90.70
2018-12-21T09:11:22.986Z,90.80
2018-12-21T09:14:26.987Z,91.00
2018-12-21T09:17:31.080Z,91.20
2018-12-21T09:20:35.070Z,91.30
2018-12-21T09:23:39.070Z,91.60
2018-12-21T09:26:43.075Z,91.70
2018-12-21T09:29:47.098Z,91.80
2018-12-21T09:32:51.099Z,92.00
2018-12-21T09:35:55.255Z,92.10
2018-12-21T09:38:59.251Z,92.30
2018-12-21T09:42:03.259Z,92.50
2018-12-21T09:45:07.555Z,92.70
2018-12-21T09:48:11.538Z,92.80
2018-12-21T09:51:15.914Z,92.90
2018-12-21T09:54:19.943Z,93.00
2018-12-21T09:57:23.934Z,93.10
2018-12-21T10:00:27.939Z,93.10
2018-12-21T10:03:31.962Z,93.30
2018-12-21T10:06:36.138Z,93.30
2018-12-21T10:09:40.154Z,93.40
2018-12-21T10:12:44.162Z,93.50
2018-12-21T10:15:48.190Z,93.50
2018-12-21T10:18:52.195Z,93.50
2018-12-21T10:21:56.178Z,93.60
2018-12-21T10:25:00.205Z,93.60
2018-12-21T10:28:04.199Z,93.60
2018-12-21T10:31:08.234Z,93.60
2018-12-21T10:34:12.240Z,93.60
2018-12-21T10:37:16.846Z,93.50
2018-12-21T10:40:21.045Z,93.60
2018-12-21T10:43:25.054Z,93.70
2018-12-21T10:46:29.057Z,93.70
2018-12-21T10:49:33.063Z,93.70
2018-12-21T10:52:38.969Z,93.70
2018-12-21T10:55:43.154Z,93.70
2018-12-21T10:58:47.162Z,93.70
2018-12-21T11:01:51.249Z,93.70
2018-12-21T11:04:55.262Z,93.80
2018-12-21T11:07:59.358Z,93.70
2018-12-21T11:11:03.546Z,93.70
2018-12-21T11:14:07.634Z,93.70
2018-12-21T11:17:11.644Z,94.00
2018-12-21T11:20:15.640Z,93.70
2018-12-21T11:23:19.635Z,93.70
2018-12-21T11:26:23.634Z,93.80
2018-12-21T11:29:27.627Z,93.90
2018-12-21T11:32:31.647Z,94.00
2018-12-21T11:35:35.675Z,93.80
2018-12-21T11:38:39.708Z,94.00
2018-12-21T11:41:43.735Z,93.70
2018-12-21T11:44:47.749Z,93.70
2018-12-21T11:47:51.755Z,93.70
2018-12-21T11:50:55.750Z,93.80
2018-12-21T11:53:59.748Z,93.80
2018-12-21T11:57:03.759Z,93.80
2018-12-21T12:00:09.391Z,93.70
2018-12-21T12:03:13.409Z,93.70
2018-12-21T12:06:17.408Z,93.70
2018-12-21T12:09:21.981Z,93.70
2018-12-21T12:12:25.999Z,93.80
2018-12-21T12:15:30.014Z,93.90
2018-12-21T12:18:34.101Z,93.80
2018-12-21T12:21:38.113Z,93.80
2018-12-21T12:24:42.110Z,93.60
2018-12-21T12:27:46.127Z,93.60
2018-12-21T12:30:50.206Z,93.70
2018-12-21T12:33:54.205Z,93.70
2018-12-21T12:36:58.231Z,93.80
2018-12-21T12:40:02.240Z,93.90
2018-12-21T12:43:06.339Z,93.80
2018-12-21T12:46:10.339Z,93.80
2018-12-21T12:49:14.372Z,93.90
2018-12-21T12:52:18.369Z,93.90
2018-12-21T12:55:22.382Z,94.00
2018-12-21T12:58:26.390Z,94.10
2018-12-21T13:01:30.403Z,94.00
2018-12-21T13:04:34.432Z,94.10
2018-12-21T13:07:38.438Z,94.20
2018-12-21T13:10:42.451Z,94.20
2018-12-21T13:13:46.451Z,94.20
2018-12-21T13:16:50.464Z,94.10
2018-12-21T13:19:54.475Z,94.10
2018-12-21T13:22:58.479Z,94.20
2018-12-21T13:26:02.496Z,94.20
2018-12-21T13:29:06.499Z,94.30
2018-12-21T13:32:10.504Z,94.40
2018-12-21T13:35:15.351Z,94.50
2018-12-21T13:38:19.335Z,94.60
2018-12-21T13:41:23.343Z,94.60
2018-12-21T13:44:27.345Z,94.50
2018-12-21T13:47:31.331Z,94.60
2018-12-21T13:50:35.359Z,94.80
2018-12-21T13:53:39.350Z,94.80
2018-12-21T13:56:43.463Z,94.90
2018-12-21T13:59:47.466Z,95.10
2018-12-21T14:02:51.451Z,95.20
2018-12-21T14:05:55.449Z,95.30
2018-12-21T14:08:59.457Z,95.40
2018-12-21T14:12:03.808Z,95.60
2018-12-21T14:15:08.467Z,95.80
2018-12-21T14:18:12.464Z,95.90
2018-12-21T14:21:16.456Z,96.10
2018-12-21T14:24:20.565Z,96.30
2018-12-21T14:27:24.567Z,96.40
2018-12-21T14:30:28.595Z,96.60
2018-12-21T14:33:32.834Z,96.60
2018-12-21T14:36:36.963Z,96.90
2018-12-21T14:39:40.967Z,97.10
2018-12-21T14:42:45.129Z,97.10
2018-12-21T14:45:49.122Z,97.20
2018-12-21T14:48:53.223Z,96.80
2018-12-21T14:51:57.242Z,96.90
2018-12-21T14:55:01.259Z,97.00
2018-12-21T14:58:05.367Z,97.20
2018-12-21T15:01:09.391Z,97.20
2018-12-21T15:04:14.050Z,97.30
2018-12-21T15:07:18.127Z,97.20
2018-12-21T15:10:22.640Z,97.30
2018-12-21T15:13:27.705Z,97.20
2018-12-21T15:16:32.022Z,97.20
2018-12-21T15:19:36.271Z,97.20
2018-12-21T15:22:40.274Z,97.20
2018-12-21T15:25:46.105Z,97.10
2018-12-21T15:28:50.464Z,97.20
2018-12-21T15:31:55.895Z,97.20
2018-12-21T15:35:00.571Z,97.20
2018-12-21T15:38:05.115Z,97.10
2018-12-21T15:41:09.755Z,97.10
2018-12-21T15:44:14.242Z,97.10
2018-12-21T15:47:18.286Z,97.10
2018-12-21T15:50:23.490Z,97.40
2018-12-21T15:53:27.558Z,97.00
2018-12-21T15:56:31.701Z,97.00
2018-12-21T15:59:35.727Z,97.00
2018-12-21T16:02:41.371Z,96.90
2018-12-21T16:05:45.590Z,97.00
2018-12-21T16:08:49.628Z,96.90
2018-12-21T16:11:53.691Z,96.90
2018-12-21T16:14:58.184Z,96.90
2018-12-21T16:18:02.274Z,96.90
2018-12-21T16:21:06.283Z,97.00
2018-12-21T16:24:10.843Z,97.00
2018-12-21T16:27:14.866Z,97.00
2018-12-21T16:30:19.100Z,97.00
2018-12-21T16:33:23.151Z,97.00
2018-12-21T16:36:27.166Z,97.00
2018-12-21T16:39:31.235Z,97.10
2018-12-21T16:42:35.271Z,97.00
2018-12-21T16:45:39.370Z,97.10
2018-12-21T16:48:44.168Z,97.00
2018-12-21T16:51:48.239Z,96.90
2018-12-21T16:54:52.247Z,96.90
2018-12-21T16:57:56.261Z,96.90
2018-12-21T17:01:00.282Z,96.90
2018-12-21T17:04:04.386Z,97.00
2018-12-21T17:07:08.510Z,97.00
2018-12-21T17:10:16.333Z,97.00
2018-12-21T17:13:20.373Z,97.00
2018-12-21T17:16:24.379Z,96.90
2018-12-21T17:19:28.403Z,97.00
2018-12-21T17:22:32.426Z,96.90
2018-12-21T17:25:37.516Z,96.90
2018-12-21T17:28:41.684Z,97.00
2018-12-21T17:31:46.437Z,97.00
2018-12-21T17:34:50.466Z,96.90
2018-12-21T17:37:54.562Z,96.90
2018-12-21T17:40:59.573Z,96.80
2018-12-21T17:44:03.649Z,96.80
2018-12-21T17:47:07.735Z,96.80
2018-12-21T17:50:12.002Z,96.70
2018-12-21T17:53:15.994Z,96.60
2018-12-21T17:56:29.703Z,96.50
2018-12-21T17:59:27.419Z,96.50
2018-12-21T18:02:31.446Z,96.30
2018-12-21T18:05:35.454Z,96.10
2018-12-21T18:08:39.477Z,96.00
2018-12-21T18:11:43.578Z,95.80
2018-12-21T18:14:47.583Z,95.70
2018-12-21T18:17:51.591Z,95.60
2018-12-21T18:20:55.590Z,95.60
2018-12-21T18:23:59.611Z,95.50
2018-12-21T18:27:03.807Z,95.40
2018-12-21T18:30:12.911Z,95.40
2018-12-21T18:33:19.011Z,95.30
2018-12-21T18:36:23.078Z,95.30
2018-12-21T18:39:27.067Z,95.20
2018-12-21T18:42:31.092Z,95.10
2018-12-21T18:45:35.100Z,95.10
2018-12-21T18:48:39.114Z,95.00
2018-12-21T18:51:43.119Z,94.80
2018-12-21T18:54:47.127Z,94.60
2018-12-21T18:57:51.139Z,94.50
2018-12-21T19:00:55.159Z,94.40
2018-12-21T19:03:59.179Z,94.10
2018-12-21T19:07:04.256Z,94.00
2018-12-21T19:10:09.790Z,93.70
2018-12-21T19:13:14.465Z,93.50
2018-12-21T19:16:18.457Z,93.40
2018-12-21T19:19:22.480Z,93.30
2018-12-21T19:22:26.499Z,93.10
2018-12-21T19:25:30.499Z,93.00
2018-12-21T19:28:34.506Z,92.90
2018-12-21T19:31:38.575Z,92.70
2018-12-21T19:34:42.608Z,92.60
2018-12-21T19:37:46.616Z,92.50
2018-12-21T19:40:50.610Z,92.40
2018-12-21T19:43:54.619Z,92.30
2018-12-21T19:46:58.620Z,92.20
2018-12-21T19:50:02.716Z,92.20
2018-12-21T19:53:06.755Z,92.50
2018-12-21T19:56:20.661Z,92.00
2018-12-21T19:59:24.672Z,92.10
2018-12-21T20:02:28.665Z,91.80
2018-12-21T20:05:32.670Z,91.80
2018-12-21T20:08:36.884Z,91.60
2018-12-21T20:11:40.879Z,91.50
2018-12-21T20:14:44.907Z,91.50
2018-12-21T20:17:48.907Z,91.30
2018-12-21T20:20:52.931Z,91.30
2018-12-21T20:23:56.973Z,91.20
2018-12-21T20:27:13.560Z,91.10
2018-12-21T20:30:16.724Z,90.90
2018-12-21T20:33:21.277Z,90.90
2018-12-21T20:36:25.471Z,90.80
2018-12-21T20:39:29.880Z,90.70
2018-12-21T20:42:33.891Z,90.60
2018-12-21T20:45:37.965Z,90.60
2018-12-21T20:48:42.183Z,90.60
2018-12-21T20:51:46.647Z,90.60
2018-12-21T20:54:50.723Z,90.70
2018-12-21T20:57:59.787Z,90.70
2018-12-21T21:01:03.803Z,90.80
2018-12-21T21:04:07.916Z,90.80
2018-12-21T21:07:11.915Z,90.90
2018-12-21T21:10:15.941Z,90.90
2018-12-21T21:13:19.948Z,90.90
2018-12-21T21:16:23.964Z,90.80
2018-12-21T21:19:31.283Z,90.80
2018-12-21T21:22:35.262Z,90.80
2018-12-21T21:25:39.389Z,90.80
2018-12-21T21:28:43.390Z,90.80
2018-12-21T21:31:48.136Z,90.80
2018-12-21T21:34:52.233Z,90.80
2018-12-21T21:37:56.391Z,90.90
2018-12-21T21:41:00.708Z,91.00
2018-12-21T21:44:04.979Z,91.00
2018-12-21T21:47:09.005Z,91.00
2018-12-21T21:50:13.118Z,91.10
2018-12-21T21:53:17.214Z,91.00
2018-12-21T21:56:21.239Z,91.10
2018-12-21T21:59:25.257Z,91.10
2018-12-21T22:02:29.266Z,91.20
2018-12-21T22:05:33.293Z,91.30
2018-12-21T22:08:37.306Z,91.40
2018-12-21T22:11:41.314Z,91.40
2018-12-21T22:14:45.327Z,91.40
2018-12-21T22:17:49.376Z,91.50
2018-12-21T22:20:53.386Z,91.40
2018-12-21T22:23:57.391Z,91.40
2018-12-21T22:27:01.639Z,91.40
2018-12-21T22:30:08.411Z,91.50
2018-12-21T22:33:12.427Z,91.50
2018-12-21T22:36:16.427Z,91.60
2018-12-21T22:39:20.438Z,91.50
2018-12-21T22:42:24.458Z,91.50
2018-12-21T22:45:28.459Z,91.60
2018-12-21T22:48:32.474Z,91.60
2018-12-21T22:51:36.482Z,91.60
2018-12-21T22:54:40.495Z,91.50
2018-12-21T22:57:46.289Z,91.50
2018-12-21T23:00:50.610Z,91.50
2018-12-21T23:03:54.639Z,91.40
2018-12-21T23:06:58.662Z,91.30
2018-12-21T23:10:02.687Z,91.30
2018-12-21T23:13:06.702Z,91.20
2018-12-21T23:16:10.718Z,91.00
2018-12-21T23:19:14.731Z,90.70
2018-12-21T23:22:18.747Z,90.40
2018-12-21T23:25:22.747Z,90.50
2018-12-21T23:28:26.771Z,90.20
2018-12-21T23:31:30.779Z,90.10
2018-12-21T23:34:34.811Z,90.20
2018-12-21T23:37:38.828Z,90.20
2018-12-21T23:40:42.920Z,90.40
2018-12-21T23:43:46.943Z,90.60
2018-12-21T23:46:50.953Z,90.70
2018-12-21T23:49:54.975Z,90.90
2018-12-21T23:52:58.991Z,90.90
2018-12-21T23:56:02.990Z,91.10
2018-12-21T23:59:07.016Z,91.30
